createdAt,value
2023-02-13T00:00:37.239Z,31.13
2023-02-13T00:03:05.620Z,32.60
2023-02-13T00:05:33.552Z,33.60
2023-02-13T00:08:01.642Z,35.23
2023-02-13T00:10:30.852Z,31.10
2023-02-13T00:12:58.661Z,41.20
2023-02-13T00:15:26.526Z,40.87
2023-02-13T00:17:54.326Z,38.03
2023-02-13T00:20:22.419Z,35.40
2023-02-13T00:22:50.343Z,29.23
2023-02-13T00:25:18.326Z,30.13
2023-02-13T00:27:47.644Z,32.80
2023-02-13T00:30:16.621Z,32.73
2023-02-13T00:32:44.863Z,30.87
2023-02-13T00:35:12.810Z,31.47
2023-02-13T00:37:40.672Z,29.47
2023-02-13T00:40:09.750Z,36.27
2023-02-13T00:42:37.582Z,28.87
2023-02-13T00:45:07.218Z,31.70
2023-02-13T00:47:35.078Z,32.13
2023-02-13T00:50:02.978Z,31.50
2023-02-13T00:52:30.854Z,33.33
2023-02-13T00:54:58.754Z,28.50
2023-02-13T00:57:26.669Z,32.57
2023-02-13T00:59:54.583Z,33.87
2023-02-13T01:02:23.849Z,33.40
2023-02-13T01:04:51.731Z,32.53
2023-02-13T01:07:19.699Z,27.83
2023-02-13T01:09:47.523Z,21.27
2023-02-13T01:12:15.409Z,22.70
2023-02-13T01:14:44.739Z,24.10
2023-02-13T01:17:12.654Z,24.70
2023-02-13T01:19:42.982Z,25.07
2023-02-13T01:22:10.907Z,26.03
2023-02-13T01:24:38.794Z,22.23
2023-02-13T01:27:06.613Z,25.60
2023-02-13T01:29:34.587Z,28.70
2023-02-13T01:32:05.178Z,32.10
2023-02-13T01:34:33.500Z,31.33
2023-02-13T01:37:02.865Z,31.67
2023-02-13T01:39:30.721Z,26.27
2023-02-13T01:42:00.263Z,25.70
2023-02-13T01:44:48.378Z,27.70
2023-02-13T01:47:23.777Z,33.13
2023-02-13T01:49:57.005Z,32.60
2023-02-13T01:52:26.320Z,30.47
2023-02-13T01:54:54.527Z,35.40
2023-02-13T01:57:26.804Z,33.83
2023-02-13T01:59:58.572Z,30.47
2023-02-13T02:02:29.568Z,29.30
2023-02-13T02:05:00.594Z,34.63
2023-02-13T02:07:31.874Z,29.77
2023-02-13T02:10:08.706Z,29.90
2023-02-13T02:12:44.606Z,29.93
2023-02-13T02:15:13.568Z,36.70
2023-02-13T02:17:41.928Z,33.03
2023-02-13T02:20:23.187Z,31.70
2023-02-13T02:23:38.364Z,34.93
2023-02-13T02:26:45.250Z,35.63
2023-02-13T02:29:27.731Z,34.67
2023-02-13T02:32:22.590Z,35.00
2023-02-13T02:35:00.186Z,32.20
2023-02-13T02:37:45.817Z,32.47
2023-02-13T02:40:26.883Z,29.37
2023-02-13T02:43:14.305Z,32.50
2023-02-13T02:45:49.671Z,32.93
2023-02-13T02:48:45.833Z,30.20
2023-02-13T02:51:22.609Z,29.13
2023-02-13T02:54:25.642Z,30.03
2023-02-13T02:56:58.165Z,31.60
2023-02-13T02:59:48.010Z,32.03
2023-02-13T03:02:34.881Z,34.73
2023-02-13T03:05:22.708Z,29.57
2023-02-13T03:07:50.691Z,32.13
2023-02-13T03:10:42.496Z,35.33
2023-02-13T03:13:24.499Z,28.50
2023-02-13T03:16:15.270Z,31.17
2023-02-13T03:19:04.537Z,29.53
2023-02-13T03:22:05.902Z,35.73
2023-02-13T03:24:42.825Z,29.27
2023-02-13T03:27:37.235Z,36.47
2023-02-13T03:30:16.565Z,28.13
2023-02-13T03:32:50.831Z,34.97
2023-02-13T03:35:48.258Z,33.60
2023-02-13T03:38:24.221Z,40.23
2023-02-13T03:41:13.155Z,40.30
2023-02-13T03:43:48.882Z,37.30
2023-02-13T03:46:19.355Z,30.10
2023-02-13T03:49:06.107Z,32.30
2023-02-13T03:51:38.608Z,31.67
2023-02-13T03:54:17.234Z,31.37
2023-02-13T03:57:03.441Z,31.87
2023-02-13T03:59:35.142Z,32.70
2023-02-13T04:02:08.600Z,29.27
2023-02-13T04:04:44.868Z,32.73
2023-02-13T04:07:29.573Z,33.20
2023-02-13T04:10:01.090Z,34.00
2023-02-13T04:12:39.319Z,33.03
2023-02-13T04:15:13.806Z,34.33
2023-02-13T04:17:47.218Z,29.37
2023-02-13T04:20:15.907Z,29.37
2023-02-13T04:22:44.732Z,30.83
2023-02-13T04:25:16.802Z,31.50
2023-02-13T04:27:44.820Z,29.73
2023-02-13T04:30:13.887Z,32.63
2023-02-13T04:32:41.721Z,36.83
2023-02-13T04:35:11.567Z,28.87
2023-02-13T04:37:39.466Z,28.53
2023-02-13T04:40:08.688Z,32.20
2023-02-13T04:42:37.994Z,33.47
2023-02-13T04:45:06.134Z,31.30
2023-02-13T04:47:34.301Z,29.60
2023-02-13T04:50:02.226Z,32.17
2023-02-13T04:52:30.122Z,36.53
2023-02-13T04:54:58.024Z,27.77
2023-02-13T04:57:25.852Z,34.10
2023-02-13T04:59:55.027Z,28.47
2023-02-13T05:02:22.919Z,32.93
2023-02-13T05:04:50.851Z,29.30
2023-02-13T05:07:18.690Z,29.10
2023-02-13T05:09:46.564Z,28.80
2023-02-13T05:12:14.407Z,32.50
2023-02-13T05:14:42.446Z,26.87
2023-02-13T05:17:11.675Z,29.40
2023-02-13T05:19:39.628Z,28.60
2023-02-13T05:22:25.064Z,30.10
2023-02-13T05:24:53.011Z,23.60
2023-02-13T05:27:20.847Z,24.60
2023-02-13T05:29:48.707Z,28.20
2023-02-13T05:32:17.955Z,26.43
2023-02-13T05:34:45.928Z,31.00
2023-02-13T05:37:13.884Z,25.90
2023-02-13T05:39:42.124Z,27.50
2023-02-13T05:42:10.656Z,29.37
2023-02-13T05:44:38.529Z,26.03
2023-02-13T05:47:06.599Z,26.93
2023-02-13T05:49:35.847Z,31.07
2023-02-13T05:52:03.835Z,28.03
2023-02-13T05:54:31.734Z,29.00
2023-02-13T05:56:59.622Z,28.50
2023-02-13T05:59:27.573Z,31.33
2023-02-13T06:01:55.446Z,28.60
2023-02-13T06:04:23.309Z,30.43
2023-02-13T06:06:52.516Z,30.07
2023-02-13T06:09:20.482Z,31.27
2023-02-13T06:11:48.337Z,33.43
2023-02-13T06:14:16.429Z,29.73
2023-02-13T06:16:44.251Z,34.20
2023-02-13T06:19:12.174Z,32.20
2023-02-13T06:21:40.035Z,31.13
2023-02-13T06:24:09.774Z,30.77
2023-02-13T06:26:39.547Z,33.43
2023-02-13T06:29:09.300Z,34.87
2023-02-13T06:31:37.264Z,52.17
2023-02-13T06:34:05.391Z,60.70
2023-02-13T06:36:33.349Z,36.23
2023-02-13T06:39:01.194Z,35.47
2023-02-13T06:41:30.449Z,28.30
2023-02-13T06:43:58.285Z,50.73
2023-02-13T06:46:26.140Z,45.67
2023-02-13T06:48:53.969Z,31.10
2023-02-13T06:51:21.968Z,33.73
2023-02-13T06:53:49.817Z,31.37
2023-02-13T06:56:17.608Z,30.30
2023-02-13T06:58:46.829Z,31.40
2023-02-13T07:01:14.751Z,27.97
2023-02-13T07:03:42.647Z,30.30
2023-02-13T07:06:10.551Z,29.83
2023-02-13T07:08:38.453Z,34.30
2023-02-13T07:11:06.388Z,38.37
2023-02-13T07:13:34.225Z,33.90
2023-02-13T07:16:03.578Z,30.43
2023-02-13T07:18:31.556Z,30.90
2023-02-13T07:20:59.934Z,26.93
2023-02-13T07:23:28.015Z,28.97
2023-02-13T07:25:56.041Z,27.10
2023-02-13T07:28:24.122Z,28.77
2023-02-13T07:30:52.205Z,25.20
2023-02-13T07:33:25.783Z,29.90
2023-02-13T07:35:53.686Z,30.33
2023-02-13T07:38:21.771Z,28.10
2023-02-13T07:40:49.673Z,31.13
2023-02-13T07:43:17.703Z,28.30
2023-02-13T07:45:47.027Z,30.10
2023-02-13T07:48:14.978Z,28.53
2023-02-13T07:50:44.236Z,30.37
2023-02-13T07:53:12.101Z,31.80
2023-02-13T07:55:40.050Z,29.03
2023-02-13T07:58:07.908Z,26.77
2023-02-13T08:00:35.742Z,32.33
2023-02-13T08:03:04.001Z,31.27
2023-02-13T08:05:34.022Z,32.93
2023-02-13T08:08:03.206Z,33.43
2023-02-13T08:10:49.130Z,31.50
2023-02-13T08:13:18.206Z,30.67
2023-02-13T08:15:47.105Z,32.20
2023-02-13T08:18:14.980Z,28.33
2023-02-13T08:20:42.851Z,32.80
2023-02-13T08:23:12.912Z,26.33
2023-02-13T08:25:41.578Z,36.13
2023-02-13T08:28:09.611Z,28.17
2023-02-13T08:30:37.600Z,31.70
2023-02-13T08:33:05.483Z,23.33
2023-02-13T08:35:33.391Z,27.13
2023-02-13T08:38:04.127Z,28.33
2023-02-13T08:40:33.629Z,24.80
2023-02-13T08:43:02.485Z,25.70
2023-02-13T08:45:30.510Z,28.23
2023-02-13T08:47:58.848Z,24.80
2023-02-13T08:50:28.552Z,26.60
2023-02-13T08:52:56.520Z,23.90
2023-02-13T08:55:24.402Z,26.57
2023-02-13T08:57:53.742Z,22.33
2023-02-13T09:00:22.584Z,22.57
2023-02-13T09:02:50.469Z,22.40
2023-02-13T09:05:18.408Z,25.33
2023-02-13T09:07:46.264Z,21.00
2023-02-13T09:10:14.210Z,25.43
2023-02-13T09:12:42.167Z,21.70
2023-02-13T09:15:11.632Z,19.73
2023-02-13T09:17:39.638Z,25.37
2023-02-13T09:20:08.583Z,23.53
2023-02-13T09:22:36.433Z,25.57
2023-02-13T09:25:04.900Z,25.37
2023-02-13T09:27:33.614Z,23.37
2023-02-13T09:30:01.664Z,22.13
2023-02-13T09:32:31.049Z,25.87
2023-02-13T09:34:58.962Z,27.17
2023-02-13T09:37:27.009Z,21.40
2023-02-13T09:39:54.886Z,23.80
2023-02-13T09:42:25.999Z,26.40
2023-02-13T09:44:56.723Z,28.73
2023-02-13T09:47:30.779Z,25.33
2023-02-13T09:50:04.358Z,24.63
2023-02-13T09:52:34.676Z,25.20
2023-02-13T09:55:03.184Z,23.23
2023-02-13T09:57:36.803Z,24.80
2023-02-13T10:00:14.538Z,24.47
2023-02-13T10:03:01.216Z,25.83
2023-02-13T10:05:57.887Z,29.33
2023-02-13T10:08:35.892Z,26.60
2023-02-13T10:11:11.320Z,24.17
2023-02-13T10:13:58.146Z,26.03
2023-02-13T10:16:31.254Z,24.10
2023-02-13T10:19:06.751Z,32.30
2023-02-13T10:21:42.710Z,27.70
2023-02-13T10:24:14.831Z,24.87
2023-02-13T10:26:46.646Z,26.03
2023-02-13T10:29:39.846Z,24.80
2023-02-13T10:32:11.846Z,22.87
2023-02-13T10:34:44.595Z,22.50
2023-02-13T10:37:17.407Z,28.83
2023-02-13T10:39:48.531Z,21.70
2023-02-13T10:42:25.964Z,24.47
2023-02-13T10:45:14.849Z,23.63
2023-02-13T10:47:55.125Z,20.77
2023-02-13T10:50:31.494Z,22.83
2023-02-13T10:53:12.870Z,23.60
2023-02-13T10:56:08.087Z,19.60
2023-02-13T10:58:51.719Z,21.57
2023-02-13T11:01:30.971Z,28.13
2023-02-13T11:04:06.904Z,22.40
2023-02-13T11:06:37.818Z,20.97
2023-02-13T11:09:08.567Z,21.50
2023-02-13T11:11:38.509Z,25.50
2023-02-13T11:14:13.231Z,20.07
2023-02-13T11:16:57.584Z,22.33
2023-02-13T11:19:30.697Z,25.07
2023-02-13T11:22:02.867Z,27.27
2023-02-13T11:24:33.663Z,21.73
2023-02-13T11:27:08.671Z,30.90
2023-02-13T11:29:38.537Z,26.07
2023-02-13T11:32:18.684Z,33.17
2023-02-13T11:34:47.620Z,34.47
2023-02-13T11:37:24.727Z,31.20
2023-02-13T11:39:56.016Z,26.77
2023-02-13T11:42:30.552Z,28.63
2023-02-13T11:45:02.612Z,29.77
2023-02-13T11:47:40.265Z,28.27
2023-02-13T11:50:22.202Z,28.10
2023-02-13T11:53:03.222Z,28.83
2023-02-13T11:55:35.362Z,29.00
2023-02-13T11:58:05.405Z,26.77
2023-02-13T12:00:39.868Z,26.60
2023-02-13T12:03:29.986Z,25.60
2023-02-13T12:06:03.832Z,24.47
2023-02-13T12:08:33.768Z,27.43
2023-02-13T12:11:07.299Z,29.50
2023-02-13T12:13:38.925Z,24.13
2023-02-13T12:16:13.875Z,27.67
2023-02-13T12:18:45.848Z,24.20
2023-02-13T12:21:38.310Z,24.20
2023-02-13T12:24:16.840Z,26.07
2023-02-13T12:26:49.786Z,23.00
2023-02-13T12:29:36.280Z,26.37
2023-02-13T12:32:16.638Z,25.50
2023-02-13T12:35:04.818Z,29.43
2023-02-13T12:37:59.021Z,22.50
2023-02-13T12:41:03.440Z,24.93
2023-02-13T12:43:59.629Z,25.33
2023-02-13T12:46:37.661Z,25.57
2023-02-13T12:49:23.264Z,16.53
2023-02-13T12:52:02.097Z,18.20
2023-02-13T12:54:45.905Z,23.27
2023-02-13T12:57:28.815Z,21.17
2023-02-13T13:00:16.399Z,17.50
2023-02-13T13:03:06.813Z,15.47
2023-02-13T13:06:03.570Z,17.40
2023-02-13T13:09:11.450Z,15.43
2023-02-13T13:12:09.192Z,12.23
2023-02-13T13:14:46.298Z,17.20
2023-02-13T13:17:31.653Z,13.07
2023-02-13T13:20:14.459Z,19.27
2023-02-13T13:22:53.454Z,18.80
2023-02-13T13:25:24.637Z,13.97
2023-02-13T13:27:56.624Z,12.30
2023-02-13T13:30:28.818Z,12.37
2023-02-13T13:33:03.902Z,10.03
2023-02-13T13:35:34.106Z,7.30
2023-02-13T13:38:13.128Z,5.70
2023-02-13T13:40:49.064Z,7.80
2023-02-13T13:43:27.254Z,3.87
2023-02-13T13:46:08.281Z,4.00
2023-02-13T13:48:56.668Z,4.50
2023-02-13T13:51:25.459Z,4.90
2023-02-13T13:54:26.026Z,7.87
2023-02-13T13:57:13.563Z,4.83
2023-02-13T14:00:03.638Z,5.50
2023-02-13T14:02:42.705Z,5.50
2023-02-13T14:05:56.039Z,5.67
2023-02-13T14:08:57.134Z,9.00
2023-02-13T14:11:31.889Z,9.63
2023-02-13T14:14:00.576Z,9.77
2023-02-13T14:16:43.693Z,5.97
2023-02-13T14:19:30.489Z,8.83
2023-02-13T14:22:33.671Z,11.47
2023-02-13T14:25:03.951Z,6.90
2023-02-13T14:27:34.124Z,7.70
2023-02-13T14:30:03.024Z,8.63
2023-02-13T14:32:33.429Z,9.37
2023-02-13T14:35:03.306Z,9.27
2023-02-13T14:37:37.396Z,9.30
2023-02-13T14:40:31.170Z,5.83
2023-02-13T14:43:06.450Z,4.93
2023-02-13T14:45:42.103Z,7.07
2023-02-13T14:48:15.447Z,5.70
2023-02-13T14:50:51.434Z,5.83
2023-02-13T14:53:28.903Z,6.40
2023-02-13T14:56:02.030Z,6.27
2023-02-13T14:58:33.624Z,5.00
2023-02-13T15:01:06.361Z,5.17
2023-02-13T15:03:39.356Z,7.27
2023-02-13T15:06:15.324Z,11.80
2023-02-13T15:08:49.819Z,5.53
2023-02-13T15:11:39.203Z,8.27
2023-02-13T15:14:18.439Z,10.10
2023-02-13T15:16:49.664Z,7.53
2023-02-13T15:19:20.292Z,10.80
2023-02-13T15:21:52.951Z,9.43
2023-02-13T15:24:26.464Z,10.47
2023-02-13T15:27:00.107Z,9.10
2023-02-13T15:29:37.917Z,10.73
2023-02-13T15:32:20.539Z,13.90
2023-02-13T15:34:49.792Z,8.80
2023-02-13T15:37:25.466Z,10.23
2023-02-13T15:39:54.767Z,9.87
2023-02-13T15:42:22.767Z,13.10
2023-02-13T15:44:53.992Z,10.73
2023-02-13T15:47:27.644Z,8.80
2023-02-13T15:49:55.830Z,9.23
2023-02-13T15:52:30.685Z,12.07
2023-02-13T15:55:00.293Z,9.80
2023-02-13T15:57:29.230Z,9.40
2023-02-13T16:00:00.374Z,10.70
2023-02-13T16:02:35.614Z,9.37
2023-02-13T16:05:03.924Z,9.43
2023-02-13T16:07:32.120Z,9.60
2023-02-13T16:10:16.992Z,9.17
2023-02-13T16:12:47.967Z,12.23
2023-02-13T16:15:19.691Z,10.40
2023-02-13T16:17:48.739Z,10.23
2023-02-13T16:20:22.303Z,10.17
2023-02-13T16:22:53.398Z,14.30
2023-02-13T16:25:26.177Z,11.33
2023-02-13T16:27:57.418Z,9.03
2023-02-13T16:30:34.937Z,12.10
2023-02-13T16:33:21.389Z,12.90
2023-02-13T16:35:51.013Z,47.07
2023-02-13T16:38:33.267Z,14.50
2023-02-13T16:41:04.059Z,15.03
2023-02-13T16:43:53.595Z,12.33
2023-02-13T16:46:33.229Z,10.50
2023-02-13T16:49:20.365Z,9.20
2023-02-13T16:51:51.388Z,9.00
2023-02-13T16:54:24.119Z,11.60
2023-02-13T16:56:57.182Z,12.90
2023-02-13T16:59:32.157Z,13.97
2023-02-13T17:02:21.147Z,13.30
2023-02-13T17:04:51.904Z,11.70
2023-02-13T17:07:22.951Z,11.60
2023-02-13T17:09:54.446Z,12.10
2023-02-13T17:12:24.670Z,9.67
2023-02-13T17:14:53.424Z,12.27
2023-02-13T17:17:23.077Z,11.07
2023-02-13T17:19:51.728Z,14.57
2023-02-13T17:22:38.904Z,12.27
2023-02-13T17:25:09.581Z,10.83
2023-02-13T17:27:38.913Z,14.17
2023-02-13T17:30:08.449Z,12.67
2023-02-13T17:32:37.646Z,12.17
2023-02-13T17:35:05.840Z,13.13
2023-02-13T17:37:34.124Z,14.37
2023-02-13T17:40:02.050Z,13.07
2023-02-13T17:42:31.163Z,13.73
2023-02-13T17:45:00.373Z,15.23
2023-02-13T17:47:30.217Z,15.07
2023-02-13T17:50:08.902Z,15.00
2023-02-13T17:52:38.603Z,22.07
2023-02-13T17:55:08.429Z,14.00
2023-02-13T17:57:36.324Z,13.40
2023-02-13T18:00:07.267Z,24.43
2023-02-13T18:02:42.384Z,16.07
2023-02-13T18:05:10.723Z,18.70
2023-02-13T18:07:39.415Z,11.90
2023-02-13T18:10:09.828Z,15.97
2023-02-13T18:12:40.127Z,17.50
2023-02-13T18:15:10.349Z,17.67
2023-02-13T18:17:38.847Z,14.30
2023-02-13T18:20:10.094Z,10.97
2023-02-13T18:22:38.072Z,7.53
2023-02-13T18:25:06.830Z,12.47
2023-02-13T18:27:34.814Z,13.07
2023-02-13T18:30:02.780Z,13.93
2023-02-13T18:32:32.965Z,14.10
2023-02-13T18:35:00.889Z,13.70
2023-02-13T18:37:29.427Z,11.87
2023-02-13T18:39:57.896Z,14.73
2023-02-13T18:42:26.089Z,17.97
2023-02-13T18:44:54.278Z,11.87
2023-02-13T18:47:22.179Z,17.43
2023-02-13T18:49:51.501Z,15.30
2023-02-13T18:52:19.341Z,14.40
2023-02-13T18:54:47.219Z,16.70
2023-02-13T18:57:15.159Z,15.10
2023-02-13T18:59:43.143Z,14.90
2023-02-13T19:02:11.551Z,13.97
2023-02-13T19:04:39.500Z,11.43
2023-02-13T19:07:08.750Z,12.80
2023-02-13T19:09:40.239Z,13.90
2023-02-13T19:12:09.057Z,12.17
2023-02-13T19:14:37.062Z,14.70
2023-02-13T19:17:05.111Z,13.90
2023-02-13T19:19:32.911Z,12.50
2023-02-13T19:22:00.747Z,12.87
2023-02-13T19:24:29.950Z,16.70
2023-02-13T19:26:57.889Z,14.30
2023-02-13T19:29:25.904Z,13.17
2023-02-13T19:31:53.875Z,15.70
2023-02-13T19:34:21.775Z,16.60
2023-02-13T19:36:49.692Z,15.03
2023-02-13T19:39:18.062Z,14.10
2023-02-13T19:41:47.343Z,14.73
2023-02-13T19:44:16.010Z,14.50
2023-02-13T19:46:44.079Z,16.07
2023-02-13T19:49:12.053Z,16.83
2023-02-13T19:51:42.041Z,16.63
2023-02-13T19:54:11.688Z,20.43
2023-02-13T19:56:40.914Z,16.27
2023-02-13T19:59:13.497Z,16.33
2023-02-13T20:01:42.668Z,16.80
2023-02-13T20:04:11.092Z,19.40
2023-02-13T20:06:39.364Z,19.47
2023-02-13T20:09:09.802Z,17.40
2023-02-13T20:11:38.088Z,18.37
2023-02-13T20:14:11.308Z,21.00
2023-02-13T20:16:40.637Z,18.90
2023-02-13T20:19:11.472Z,22.73
2023-02-13T20:21:41.324Z,19.67
2023-02-13T20:24:10.470Z,22.10
2023-02-13T20:26:39.066Z,20.83
2023-02-13T20:29:07.456Z,20.63
2023-02-13T20:31:35.751Z,21.30
2023-02-13T20:34:07.781Z,22.10
2023-02-13T20:36:36.085Z,18.47
2023-02-13T20:39:06.470Z,19.87
2023-02-13T20:41:36.882Z,23.13
2023-02-13T20:44:07.708Z,20.97
2023-02-13T20:46:37.914Z,17.57
2023-02-13T20:49:07.249Z,24.07
2023-02-13T20:51:35.837Z,20.67
2023-02-13T20:54:04.315Z,22.23
2023-02-13T20:56:32.514Z,23.80
2023-02-13T20:59:02.436Z,22.33
2023-02-13T21:01:32.410Z,22.60
2023-02-13T21:04:00.597Z,22.37
2023-02-13T21:06:31.212Z,28.57
2023-02-13T21:08:59.312Z,27.57
2023-02-13T21:11:28.344Z,23.17
2023-02-13T21:13:57.446Z,24.90
2023-02-13T21:16:27.733Z,24.83
2023-02-13T21:19:00.262Z,25.73
2023-02-13T21:21:31.379Z,23.67
2023-02-13T21:24:01.882Z,24.83
2023-02-13T21:26:30.360Z,31.70
2023-02-13T21:28:59.073Z,21.47
2023-02-13T21:31:30.292Z,27.03
2023-02-13T21:34:00.058Z,23.60
2023-02-13T21:36:29.499Z,21.40
2023-02-13T21:38:57.582Z,29.67
2023-02-13T21:41:25.577Z,23.10
2023-02-13T21:43:53.681Z,24.37
2023-02-13T21:46:23.590Z,23.47
2023-02-13T21:48:54.400Z,24.20
2023-02-13T21:51:23.403Z,27.17
2023-02-13T21:53:53.575Z,23.23
2023-02-13T21:56:23.394Z,23.13
2023-02-13T21:58:51.798Z,21.87
2023-02-13T22:01:26.486Z,24.20
2023-02-13T22:03:58.500Z,21.77
2023-02-13T22:06:29.078Z,21.23
2023-02-13T22:08:59.474Z,22.80
2023-02-13T22:11:28.207Z,21.07
2023-02-13T22:13:57.628Z,20.13
2023-02-13T22:16:25.719Z,22.83
2023-02-13T22:18:53.721Z,22.97
2023-02-13T22:21:24.033Z,19.13
2023-02-13T22:23:52.639Z,21.97
2023-02-13T22:26:24.359Z,18.57
2023-02-13T22:28:53.202Z,20.67
2023-02-13T22:31:24.959Z,17.47
2023-02-13T22:34:03.466Z,16.97
2023-02-13T22:36:32.736Z,18.53
2023-02-13T22:39:00.902Z,17.07
2023-02-13T22:41:30.508Z,20.93
2023-02-13T22:43:58.684Z,18.87
2023-02-13T22:46:29.020Z,14.63
2023-02-13T22:48:57.227Z,18.97
2023-02-13T22:51:26.928Z,22.00
2023-02-13T22:53:56.221Z,18.03
2023-02-13T22:56:25.386Z,18.00
2023-02-13T22:58:54.697Z,15.57
2023-02-13T23:01:24.692Z,20.37
2023-02-13T23:03:52.678Z,18.23
2023-02-13T23:06:21.738Z,18.00
2023-02-13T23:08:53.313Z,13.33
2023-02-13T23:11:48.391Z,14.43
2023-02-13T23:14:18.356Z,16.83
2023-02-13T23:17:03.894Z,18.43
2023-02-13T23:19:31.826Z,17.80
2023-02-13T23:22:00.021Z,17.90
2023-02-13T23:24:27.926Z,15.83
2023-02-13T23:26:55.889Z,18.00
2023-02-13T23:29:25.221Z,19.20
2023-02-13T23:31:53.246Z,21.97
2023-02-13T23:34:21.314Z,18.87
2023-02-13T23:36:49.273Z,18.40
2023-02-13T23:39:17.312Z,18.43
2023-02-13T23:41:45.186Z,15.30
2023-02-13T23:44:13.282Z,16.70
2023-02-13T23:46:42.649Z,19.80
2023-02-13T23:49:10.969Z,19.20
2023-02-13T23:51:38.783Z,16.10
2023-02-13T23:54:06.681Z,13.60
2023-02-13T23:56:34.603Z,17.70
2023-02-13T23:59:02.451Z,16.50
